createdAt,value
2022-09-13T00:02:01.513Z,99562.16
2022-09-13T00:04:27.921Z,99542.81
2022-09-13T00:06:54.319Z,99534.81
2022-09-13T00:09:20.757Z,99528.66
2022-09-13T00:11:47.166Z,99526.81
2022-09-13T00:16:40.022Z,99520.50
2022-09-13T00:23:59.346Z,99530.34
2022-09-13T00:26:28.180Z,99542.66
2022-09-13T00:28:57.458Z,99545.03
2022-09-13T00:31:26.184Z,99565.72
2022-09-13T00:33:52.671Z,99575.91
2022-09-13T00:36:19.449Z,99584.16
2022-09-13T00:38:45.847Z,99569.63
2022-09-13T00:41:15.993Z,99549.91
2022-09-13T00:43:55.695Z,99543.06
2022-09-13T00:46:27.801Z,99546.28
2022-09-13T00:49:00.656Z,99533.44
2022-09-13T00:51:28.387Z,99533.19
2022-09-13T00:53:57.433Z,99531.69
2022-09-13T00:56:33.901Z,99533.09
2022-09-13T00:59:06.210Z,99530.84
2022-09-13T01:01:40.185Z,99526.97
2022-09-13T01:04:10.754Z,99528.91
2022-09-13T01:06:40.964Z,99538.69
2022-09-13T01:09:07.858Z,99528.28
2022-09-13T01:11:40.467Z,99587.09
2022-09-13T01:14:08.713Z,99592.16
2022-09-13T01:16:36.060Z,99583.81
2022-09-13T01:19:03.021Z,99582.88
2022-09-13T01:22:00.388Z,99561.88
2022-09-13T01:25:05.167Z,99527.16
2022-09-13T01:27:40.864Z,99556.91
2022-09-13T01:30:13.245Z,99641.25
2022-09-13T01:32:50.669Z,99607.94
2022-09-13T01:35:47.573Z,99607.25
2022-09-13T01:38:19.949Z,99582.28
2022-09-13T01:41:07.293Z,99481.16
2022-09-13T01:43:42.295Z,99438.72
2022-09-13T01:46:25.370Z,99442.78
2022-09-13T01:49:02.527Z,99443.91
2022-09-13T01:51:39.424Z,99447.53
2022-09-13T01:54:20.397Z,99455.19
2022-09-13T01:57:00.538Z,99455.34
2022-09-13T01:59:46.415Z,99402.16
2022-09-13T02:02:22.418Z,99377.53
2022-09-13T02:04:58.707Z,99369.56
2022-09-13T02:07:32.774Z,99334.13
2022-09-13T02:10:05.261Z,99311.72
2022-09-13T02:12:36.208Z,99235.81
2022-09-13T02:15:16.045Z,99193.25
2022-09-13T02:17:49.357Z,99167.78
2022-09-13T02:20:22.706Z,99143.94
2022-09-13T02:22:54.648Z,99137.47
2022-09-13T02:25:24.799Z,99131.06
2022-09-13T02:27:56.170Z,99138.09
2022-09-13T02:30:22.610Z,99128.59
2022-09-13T02:33:00.862Z,99111.97
2022-09-13T02:35:38.577Z,99122.50
2022-09-13T02:38:10.976Z,99102.03
2022-09-13T02:40:48.190Z,99081.63
2022-09-13T02:43:20.258Z,99072.41
2022-09-13T02:45:57.403Z,99074.47
2022-09-13T02:48:51.994Z,99078.09
2022-09-13T02:51:29.081Z,99066.50
2022-09-13T02:54:19.516Z,99055.00
2022-09-13T02:57:05.717Z,99042.84
2022-09-13T02:59:32.437Z,99045.38
2022-09-13T03:01:58.838Z,99037.50
2022-09-13T03:04:26.981Z,99037.09
2022-09-13T03:06:53.380Z,99043.50
2022-09-13T03:09:20.741Z,99042.56
2022-09-13T03:12:14.493Z,99025.59
2022-09-13T03:15:11.617Z,99016.63
2022-09-13T03:18:07.304Z,99009.63
2022-09-13T03:21:11.079Z,99008.91
2022-09-13T03:24:00.534Z,99009.31
2022-09-13T03:27:01.609Z,99006.38
2022-09-13T03:29:40.044Z,98994.91
2022-09-13T03:32:18.724Z,99015.47
2022-09-13T03:34:45.072Z,99017.72
2022-09-13T03:37:27.708Z,99009.47
2022-09-13T03:40:07.702Z,99014.44
2022-09-13T03:42:37.105Z,99030.13
2022-09-13T03:45:05.939Z,99045.25
2022-09-13T03:47:35.264Z,99031.00
2022-09-13T03:50:02.777Z,99037.69
2022-09-13T03:52:30.224Z,99039.81
2022-09-13T03:54:58.100Z,99034.94
2022-09-13T03:57:24.455Z,99032.38
2022-09-13T03:59:56.607Z,99007.88
2022-09-13T04:02:24.855Z,99017.13
2022-09-13T04:04:51.554Z,99010.50
2022-09-13T04:07:23.107Z,99004.00
2022-09-13T04:09:49.950Z,99004.16
2022-09-13T04:12:18.551Z,99000.66
2022-09-13T04:14:45.076Z,99018.56
2022-09-13T04:17:12.449Z,99004.84
2022-09-13T04:19:38.942Z,99008.75
2022-09-13T04:22:05.299Z,99010.72
2022-09-13T04:24:32.153Z,99037.31
2022-09-13T04:26:58.875Z,99040.13
2022-09-13T04:29:26.470Z,99044.28
2022-09-13T04:31:54.639Z,99066.47
2022-09-13T04:34:21.719Z,99067.06
2022-09-13T04:36:48.482Z,99058.19
2022-09-13T04:39:14.940Z,99057.06
2022-09-13T04:41:42.478Z,99064.75
2022-09-13T04:44:08.906Z,99069.81
2022-09-13T04:46:35.337Z,99073.44
2022-09-13T04:49:01.741Z,99074.00
2022-09-13T04:51:28.099Z,99079.75
2022-09-13T04:53:55.583Z,99084.38
2022-09-13T04:56:23.371Z,99097.72
2022-09-13T04:58:54.795Z,99106.78
2022-09-13T05:01:25.876Z,99104.69
2022-09-13T05:03:54.310Z,99098.66
2022-09-13T05:06:21.305Z,99098.38
2022-09-13T05:08:52.898Z,99098.81
2022-09-13T05:11:19.293Z,99115.19
2022-09-13T05:13:49.618Z,99114.91
2022-09-13T05:16:16.082Z,99121.06
2022-09-13T05:18:45.274Z,99123.72
2022-09-13T05:21:11.844Z,99116.59
2022-09-13T05:23:38.412Z,99117.72
2022-09-13T05:26:06.108Z,99121.06
2022-09-13T05:28:34.437Z,99128.91
2022-09-13T05:31:03.561Z,99117.13
2022-09-13T05:33:32.618Z,99117.13
2022-09-13T05:35:59.037Z,99109.53
2022-09-13T05:38:25.933Z,99098.06
2022-09-13T05:40:57.189Z,99107.69
2022-09-13T05:43:28.554Z,99118.63
2022-09-13T05:46:10.829Z,99110.22
2022-09-13T05:48:37.721Z,99109.91
2022-09-13T05:51:09.620Z,99111.41
2022-09-13T05:53:37.758Z,99125.44
2022-09-13T05:56:04.217Z,99163.44
2022-09-13T05:58:30.561Z,99159.66
2022-09-13T06:00:57.739Z,99175.44
2022-09-13T06:03:24.437Z,99188.78
2022-09-13T06:05:55.213Z,99197.72
2022-09-13T06:08:23.222Z,99223.75
2022-09-13T06:10:56.681Z,99268.59
2022-09-13T06:13:24.321Z,99281.22
2022-09-13T06:15:51.557Z,99309.66
2022-09-13T06:18:18.787Z,99327.72
2022-09-13T06:20:45.687Z,99392.44
2022-09-13T06:23:12.934Z,99412.22
2022-09-13T06:25:39.311Z,99442.06
2022-09-13T06:28:05.822Z,99490.72
2022-09-13T06:30:32.364Z,99550.91
2022-09-13T06:32:59.016Z,99610.69
2022-09-13T06:35:25.956Z,99692.94
2022-09-13T06:37:56.098Z,99761.19
2022-09-13T06:40:25.219Z,99841.81
2022-09-13T06:42:51.808Z,99888.53
2022-09-13T06:45:18.227Z,99950.13
2022-09-13T06:47:44.738Z,99994.81
2022-09-13T06:50:11.119Z,99985.84
2022-09-13T06:52:37.458Z,99967.28
2022-09-13T06:55:04.154Z,99936.34
2022-09-13T06:57:30.892Z,99922.50
2022-09-13T06:59:57.231Z,99893.13
2022-09-13T07:02:23.703Z,99876.19
2022-09-13T07:04:50.135Z,99850.25
2022-09-13T07:07:16.468Z,99819.50
2022-09-13T07:09:42.948Z,99786.31
2022-09-13T07:12:09.898Z,99749.78
2022-09-13T07:14:36.248Z,99730.88
2022-09-13T07:17:02.824Z,99696.47
2022-09-13T07:19:29.194Z,99654.84
2022-09-13T07:21:56.508Z,99612.38
2022-09-13T07:24:23.994Z,99587.66
2022-09-13T07:26:51.905Z,99558.50
2022-09-13T07:29:21.056Z,99531.31
2022-09-13T07:31:49.466Z,99543.03
2022-09-13T07:34:20.992Z,99497.16
2022-09-13T07:36:48.010Z,99473.56
2022-09-13T07:39:19.196Z,99507.88
2022-09-13T07:41:48.102Z,99498.78
2022-09-13T07:44:14.610Z,99525.38
2022-09-13T07:46:41.728Z,99526.59
2022-09-13T07:49:08.208Z,99537.31
2022-09-13T07:51:36.751Z,99604.28
2022-09-13T07:54:05.471Z,99596.56
2022-09-13T07:56:34.248Z,99619.22
2022-09-13T07:59:02.745Z,99633.84
2022-09-13T08:01:38.092Z,99660.06
2022-09-13T08:04:06.728Z,99664.53
2022-09-13T08:06:35.051Z,99684.06
2022-09-13T08:09:02.444Z,99702.66
2022-09-13T08:11:34.388Z,99709.00
2022-09-13T08:14:00.937Z,99715.47
2022-09-13T08:16:28.548Z,99714.31
2022-09-13T08:18:57.080Z,99739.13
2022-09-13T08:21:24.479Z,99738.19
2022-09-13T08:23:54.641Z,99743.16
2022-09-13T08:26:21.006Z,99730.41
2022-09-13T08:28:47.528Z,99727.06
2022-09-13T08:31:15.964Z,99730.09
2022-09-13T08:33:47.475Z,99725.22
2022-09-13T08:36:15.594Z,99719.94
2022-09-13T08:38:49.550Z,99718.69
2022-09-13T08:41:37.241Z,99710.75
2022-09-13T08:44:24.584Z,99694.88
2022-09-13T08:46:55.995Z,99704.69
2022-09-13T08:49:30.006Z,99693.25
2022-09-13T08:52:01.038Z,99672.84
2022-09-13T08:54:27.643Z,99647.16
2022-09-13T08:57:29.671Z,99600.31
2022-09-13T09:00:21.224Z,99671.44
2022-09-13T09:03:14.337Z,100197.28
2022-09-13T09:05:49.469Z,100351.53
2022-09-13T09:08:25.274Z,100415.56
2022-09-13T09:10:55.096Z,100391.47
2022-09-13T09:13:52.491Z,100451.44
2022-09-13T09:16:28.107Z,100572.72
2022-09-13T09:18:58.722Z,101010.00
2022-09-13T09:21:25.130Z,101106.81
2022-09-13T09:23:53.469Z,101045.69
2022-09-13T09:26:23.017Z,101144.88
2022-09-13T09:29:19.697Z,101173.91
2022-09-13T09:32:01.835Z,101101.72
2022-09-13T09:34:47.230Z,101013.94
2022-09-13T09:37:33.816Z,100868.97
2022-09-13T09:40:02.299Z,101308.16
2022-09-13T09:42:32.756Z,101336.19
2022-09-13T09:45:33.158Z,101341.22
2022-09-13T09:48:06.691Z,101340.53
2022-09-13T09:50:40.000Z,101336.53
2022-09-13T09:53:16.633Z,101358.00
2022-09-13T09:56:00.800Z,101363.50
2022-09-13T09:58:40.996Z,101355.38
2022-09-13T10:01:22.046Z,101345.63
2022-09-13T10:04:04.838Z,101352.16
2022-09-13T10:06:32.235Z,101366.19
2022-09-13T10:09:01.962Z,101370.22
2022-09-13T10:12:04.167Z,101349.72
2022-09-13T10:14:42.723Z,101341.00
2022-09-13T10:17:14.900Z,101331.91
2022-09-13T10:19:41.803Z,101337.47
2022-09-13T10:22:12.903Z,101347.56
2022-09-13T10:24:39.687Z,101344.91
2022-09-13T10:27:28.467Z,101333.44
2022-09-13T10:29:58.123Z,101337.84
2022-09-13T10:32:25.021Z,101341.88
2022-09-13T10:34:52.854Z,101348.41
2022-09-13T10:37:22.976Z,101339.34
2022-09-13T10:40:00.727Z,101334.88
2022-09-13T10:42:29.026Z,101318.31
2022-09-13T10:45:03.865Z,101310.94
2022-09-13T10:47:34.409Z,101331.75
2022-09-13T10:50:17.985Z,101333.59
2022-09-13T10:53:04.855Z,101337.06
2022-09-13T10:55:38.427Z,101350.81
2022-09-13T10:58:04.787Z,101363.59
2022-09-13T11:00:40.438Z,101348.31
2022-09-13T11:03:21.145Z,101329.81
2022-09-13T11:06:15.780Z,101319.69
2022-09-13T11:09:21.872Z,101332.53
2022-09-13T11:12:00.220Z,101320.31
2022-09-13T11:14:35.585Z,101324.72
2022-09-13T11:17:13.718Z,101333.25
2022-09-13T11:20:15.547Z,101358.84
2022-09-13T11:23:23.486Z,101348.13
2022-09-13T11:26:19.650Z,101326.81
2022-09-13T11:28:58.887Z,101326.28
2022-09-13T11:31:51.890Z,101323.50
2022-09-13T11:35:06.900Z,101334.88
2022-09-13T11:37:45.127Z,101350.34
2022-09-13T11:40:23.703Z,101359.03
2022-09-13T11:43:12.859Z,101370.56
2022-09-13T11:46:02.370Z,101357.25
2022-09-13T11:48:47.359Z,101341.88
2022-09-13T11:51:26.451Z,101342.47
2022-09-13T11:53:59.761Z,101346.75
2022-09-13T11:57:21.491Z,101348.56
2022-09-13T11:59:55.878Z,101348.31
2022-09-13T12:02:34.470Z,101349.59
2022-09-13T12:05:23.873Z,101347.69
2022-09-13T12:07:58.010Z,101347.72
2022-09-13T12:10:33.488Z,101339.63
2022-09-13T12:13:02.560Z,101327.38
2022-09-13T12:15:40.022Z,101334.66
2022-09-13T12:18:28.480Z,101332.03
2022-09-13T12:21:04.742Z,101338.16
2022-09-13T12:23:35.983Z,101332.28
2022-09-13T12:26:08.933Z,101321.94
2022-09-13T12:29:05.557Z,101328.00
2022-09-13T12:31:32.267Z,101323.19
2022-09-13T12:34:01.075Z,101325.03
2022-09-13T12:36:39.385Z,101326.03
2022-09-13T12:39:27.889Z,101311.22
2022-09-13T12:42:09.533Z,101324.59
2022-09-13T12:45:07.000Z,101321.06
2022-09-13T12:47:48.728Z,101326.59
2022-09-13T12:50:44.280Z,101341.53
2022-09-13T12:53:42.139Z,101339.34
2022-09-13T12:56:32.755Z,101326.06
2022-09-13T12:59:17.567Z,101336.53
2022-09-13T13:01:49.800Z,101337.41
2022-09-13T13:04:24.971Z,101318.25
2022-09-13T13:07:01.846Z,101314.84
2022-09-13T13:09:37.183Z,101312.75
2022-09-13T13:12:03.905Z,101327.91
2022-09-13T13:14:39.480Z,101322.03
2022-09-13T13:17:38.351Z,101316.19
2022-09-13T13:20:38.815Z,101318.88
2022-09-13T13:23:28.197Z,101311.31
2022-09-13T13:26:44.836Z,101318.25
2022-09-13T13:29:24.643Z,101304.84
2022-09-13T13:32:00.014Z,101307.63
2022-09-13T13:34:49.830Z,101305.94
2022-09-13T13:37:16.293Z,101309.59
2022-09-13T13:39:47.625Z,101311.03
2022-09-13T13:42:14.003Z,101308.16
2022-09-13T13:44:43.449Z,101305.59
2022-09-13T13:47:09.799Z,101298.28
2022-09-13T13:49:39.178Z,101292.91
2022-09-13T13:52:08.567Z,101296.66
2022-09-13T13:54:47.065Z,101283.81
2022-09-13T13:57:23.182Z,101292.53
2022-09-13T13:59:51.806Z,101284.66
2022-09-13T14:02:23.540Z,101292.56
2022-09-13T14:05:08.112Z,101286.88
2022-09-13T14:07:58.963Z,101274.28
2022-09-13T14:10:32.870Z,101279.38
2022-09-13T14:13:39.461Z,101281.09
2022-09-13T14:16:33.070Z,101279.84
2022-09-13T14:19:26.559Z,101293.28
2022-09-13T14:22:11.756Z,101293.97
2022-09-13T14:24:39.843Z,101289.66
2022-09-13T14:27:09.447Z,101280.97
2022-09-13T14:29:36.188Z,101286.06
2022-09-13T14:32:08.033Z,101281.06
2022-09-13T14:34:37.526Z,101280.09
2022-09-13T14:37:17.709Z,101292.66
2022-09-13T14:40:18.513Z,101291.31
2022-09-13T14:42:47.838Z,101307.16
2022-09-13T14:45:20.319Z,101311.50
2022-09-13T14:48:07.181Z,101308.53
2022-09-13T14:50:39.655Z,101306.19
2022-09-13T14:53:12.102Z,101303.38
2022-09-13T14:55:59.782Z,101316.78
2022-09-13T14:58:38.473Z,101325.56
2022-09-13T15:01:10.629Z,101324.13
2022-09-13T15:03:40.995Z,101315.00
2022-09-13T15:06:07.627Z,101310.94
2022-09-13T15:08:34.010Z,101307.78
2022-09-13T15:11:02.359Z,101298.03
2022-09-13T15:13:29.085Z,101305.91
2022-09-13T15:15:55.931Z,101302.91
2022-09-13T15:18:36.805Z,101297.03
2022-09-13T15:21:05.863Z,101316.97
2022-09-13T15:23:35.509Z,101314.75
2022-09-13T15:26:06.968Z,101302.09
2022-09-13T15:28:48.490Z,101298.50
2022-09-13T15:31:26.750Z,101304.63
2022-09-13T15:34:18.247Z,101312.94
2022-09-13T15:36:45.936Z,101311.19
2022-09-13T15:39:18.387Z,101314.97
2022-09-13T15:41:53.442Z,101317.09
2022-09-13T15:44:23.567Z,101316.00
2022-09-13T15:46:52.362Z,101310.69
2022-09-13T15:49:21.967Z,101311.00
2022-09-13T15:51:54.215Z,101323.00
2022-09-13T15:54:20.698Z,101319.25
2022-09-13T15:56:47.782Z,101319.00
2022-09-13T15:59:16.040Z,101334.66
2022-09-13T16:01:43.925Z,101333.84
2022-09-13T16:04:11.317Z,101329.25
2022-09-13T16:06:38.551Z,101333.50
2022-09-13T16:09:15.939Z,101335.44
2022-09-13T16:11:42.488Z,101324.72
2022-09-13T16:14:08.825Z,101322.38
2022-09-13T16:16:35.209Z,101321.34
2022-09-13T16:19:01.617Z,101316.81
2022-09-13T16:21:27.971Z,101305.88
2022-09-13T16:23:54.352Z,101277.31
2022-09-13T16:26:21.069Z,101243.75
2022-09-13T16:28:47.590Z,101243.13
2022-09-13T16:31:14.116Z,101249.34
2022-09-13T16:33:40.766Z,101244.84
2022-09-13T16:36:07.437Z,101261.00
2022-09-13T16:38:33.870Z,101245.84
2022-09-13T16:41:00.222Z,101231.53
2022-09-13T16:43:26.645Z,101221.13
2022-09-13T16:45:53.173Z,101222.50
2022-09-13T16:48:19.536Z,101221.19
2022-09-13T16:50:45.895Z,101230.25
2022-09-13T16:53:12.273Z,101216.56
2022-09-13T16:55:38.701Z,101196.50
2022-09-13T16:58:05.126Z,101156.94
2022-09-13T17:00:31.544Z,101156.44
2022-09-13T17:02:58.556Z,101138.38
2022-09-13T17:05:25.573Z,101104.84
2022-09-13T17:07:52.911Z,101093.13
2022-09-13T17:10:19.915Z,100902.44
2022-09-13T17:12:46.586Z,100806.47
2022-09-13T17:15:13.257Z,100755.84
2022-09-13T17:17:39.637Z,100732.31
2022-09-13T17:20:09.586Z,100708.91
2022-09-13T17:22:36.749Z,100702.72
2022-09-13T17:25:04.931Z,100708.00
2022-09-13T17:27:31.329Z,100689.69
2022-09-13T17:29:57.685Z,100687.78
2022-09-13T17:32:24.041Z,100672.00
2022-09-13T17:34:50.413Z,100664.03
2022-09-13T17:37:16.797Z,100627.75
2022-09-13T17:39:43.247Z,100630.06
2022-09-13T17:42:09.777Z,100595.69
2022-09-13T17:44:36.189Z,100560.25
2022-09-13T17:47:02.582Z,100513.44
2022-09-13T17:49:29.079Z,100446.59
2022-09-13T17:51:55.435Z,100299.16
2022-09-13T17:54:21.847Z,100139.41
2022-09-13T17:56:50.240Z,100028.66
2022-09-13T17:59:19.426Z,99989.63
2022-09-13T18:01:48.630Z,99970.41
2022-09-13T18:04:16.888Z,99943.88
2022-09-13T18:06:43.270Z,99887.63
2022-09-13T18:09:11.257Z,99888.00
2022-09-13T18:11:37.932Z,99846.31
2022-09-13T18:14:04.848Z,99880.56
2022-09-13T18:16:31.806Z,99878.31
2022-09-13T18:18:59.616Z,99856.59
2022-09-13T18:21:26.971Z,99826.13
2022-09-13T18:23:55.961Z,99809.44
2022-09-13T18:26:23.712Z,99770.81
2022-09-13T18:28:58.716Z,99713.22
2022-09-13T18:31:25.478Z,99681.72
2022-09-13T18:34:01.047Z,99659.50
2022-09-13T18:36:28.701Z,99642.50
2022-09-13T18:38:57.735Z,99645.91
2022-09-13T18:41:26.766Z,99582.44
2022-09-13T18:43:55.974Z,99488.63
2022-09-13T18:46:25.821Z,99436.88
2022-09-13T18:48:54.722Z,99405.78
2022-09-13T18:51:23.281Z,99432.47
2022-09-13T18:53:50.349Z,99486.34
2022-09-13T18:56:19.916Z,99486.34
2022-09-13T18:58:47.424Z,99495.75
2022-09-13T19:01:22.502Z,99529.59
2022-09-13T19:03:52.149Z,99558.34
2022-09-13T19:06:22.194Z,99582.44
2022-09-13T19:08:59.696Z,99511.66
2022-09-13T19:11:46.430Z,99608.41
2022-09-13T19:14:23.365Z,99690.44
2022-09-13T19:16:56.697Z,99764.03
2022-09-13T19:19:25.378Z,99804.19
2022-09-13T19:21:52.510Z,99880.63
2022-09-13T19:24:20.867Z,99914.78
2022-09-13T19:26:52.160Z,99952.06
2022-09-13T19:29:31.133Z,100010.94
2022-09-13T19:31:59.399Z,100066.31
2022-09-13T19:34:27.880Z,100122.69
2022-09-13T19:36:56.810Z,100155.09
2022-09-13T19:39:29.529Z,100190.28
2022-09-13T19:41:59.433Z,100200.66
2022-09-13T19:44:36.508Z,100209.56
2022-09-13T19:49:53.554Z,100218.50
2022-09-13T19:52:21.269Z,100223.44
2022-09-13T19:54:50.451Z,100236.19
2022-09-13T19:57:19.668Z,100247.06
2022-09-13T19:59:50.420Z,100261.38
2022-09-13T20:02:17.136Z,100253.16
2022-09-13T20:04:46.652Z,100243.31
2022-09-13T20:07:13.330Z,100245.00
2022-09-13T20:09:42.673Z,100243.88
2022-09-13T20:12:09.238Z,100248.88
2022-09-13T20:14:35.684Z,100247.28
2022-09-13T20:17:02.036Z,100242.84
2022-09-13T20:19:49.308Z,100246.78
2022-09-13T20:22:15.335Z,100242.72
2022-09-13T20:24:43.037Z,100258.94
2022-09-13T20:27:09.481Z,100255.75
2022-09-13T20:29:36.983Z,100261.69
2022-09-13T20:32:05.671Z,100260.19
2022-09-13T20:34:32.102Z,100264.75
2022-09-13T20:36:58.579Z,100266.53
2022-09-13T20:39:25.009Z,100262.22
2022-09-13T20:41:51.460Z,100201.69
2022-09-13T20:44:17.975Z,100223.28
2022-09-13T20:46:46.743Z,100236.78
2022-09-13T20:49:13.261Z,100213.94
2022-09-13T20:51:39.962Z,100103.94
2022-09-13T20:54:07.212Z,100115.72
2022-09-13T20:56:33.732Z,100127.34
2022-09-13T20:59:00.633Z,100125.84
2022-09-13T21:01:29.134Z,100141.03
2022-09-13T21:03:56.025Z,100137.63
2022-09-13T21:06:24.891Z,100149.72
2022-09-13T21:08:52.688Z,100152.38
2022-09-13T21:11:23.940Z,100137.78
2022-09-13T21:13:53.823Z,100144.22
2022-09-13T21:16:25.407Z,100144.59
2022-09-13T21:18:53.248Z,100146.41
2022-09-13T21:21:25.590Z,100129.72
2022-09-13T21:23:52.996Z,100129.97
2022-09-13T21:26:21.624Z,100146.00
2022-09-13T21:28:48.279Z,100134.56
2022-09-13T21:31:21.487Z,100138.34
2022-09-13T21:33:49.454Z,100143.16
2022-09-13T21:36:15.956Z,100149.56
2022-09-13T21:38:42.352Z,100114.38
2022-09-13T21:41:17.792Z,100112.47
2022-09-13T21:43:44.994Z,100106.84
2022-09-13T21:46:16.644Z,100103.06
2022-09-13T21:48:52.008Z,100102.00
2022-09-13T21:51:24.009Z,100095.91
2022-09-13T21:53:57.526Z,100060.84
2022-09-13T21:56:26.845Z,100057.38
2022-09-13T21:59:04.462Z,100065.28
2022-09-13T22:01:34.478Z,100064.63
2022-09-13T22:04:02.033Z,100063.50
2022-09-13T22:06:33.393Z,100070.41
2022-09-13T22:09:02.653Z,100057.00
2022-09-13T22:11:31.383Z,100059.66
2022-09-13T22:13:58.960Z,100041.22
2022-09-13T22:16:28.181Z,100044.72
2022-09-13T22:18:57.495Z,100047.94
2022-09-13T22:21:29.801Z,100047.94
2022-09-13T22:23:56.605Z,100037.34
2022-09-13T22:26:25.855Z,100027.84
2022-09-13T22:28:53.645Z,100034.16
2022-09-13T22:31:22.764Z,100021.69
2022-09-13T22:33:50.201Z,100024.25
2022-09-13T22:36:17.961Z,100021.69
2022-09-13T22:38:46.305Z,100018.50
2022-09-13T22:41:15.134Z,100013.00
2022-09-13T22:43:42.254Z,100021.34
2022-09-13T22:46:08.681Z,100025.84
2022-09-13T22:48:35.343Z,100021.75
2022-09-13T22:51:02.463Z,100010.91
2022-09-13T22:53:28.923Z,100003.38
2022-09-13T22:55:55.339Z,99999.97
2022-09-13T22:58:21.685Z,99983.72
2022-09-13T23:00:48.124Z,99992.31
2022-09-13T23:03:14.759Z,99984.97
2022-09-13T23:05:50.081Z,99986.69
2022-09-13T23:08:16.701Z,99984.31
2022-09-13T23:10:43.058Z,99984.97
2022-09-13T23:13:09.406Z,99985.81
2022-09-13T23:15:35.846Z,99983.50
2022-09-13T23:18:02.231Z,99975.50
2022-09-13T23:20:28.637Z,99968.75
2022-09-13T23:22:55.059Z,99956.41
2022-09-13T23:25:21.533Z,99935.38
2022-09-13T23:27:47.924Z,99933.75
2022-09-13T23:30:14.535Z,99933.53
2022-09-13T23:32:40.961Z,99923.56
2022-09-13T23:35:07.623Z,99924.84
2022-09-13T23:37:34.091Z,99914.69
2022-09-13T23:40:00.545Z,99922.31
2022-09-13T23:42:27.212Z,99912.16
2022-09-13T23:44:53.549Z,99913.00
2022-09-13T23:47:19.892Z,99904.13
2022-09-13T23:49:46.261Z,99917.22
2022-09-13T23:52:12.665Z,99909.41
2022-09-13T23:54:39.135Z,99903.59
2022-09-13T23:57:05.684Z,99902.63
2022-09-13T23:59:32.045Z,99894.16
